Aviation Digital Data Service (ADDS)

Output produced by METARs form (1458 UTC 17 November 2019)
found at http://aviationweather.gov/metar/data/
 
METAR text: KONP 171455Z AUTO 00000KT 4SM BR OVC003 09/09 A3024 RMK AO2
Conditions at: KONP (NEWPORT , OR, US) observed 1455 UTC 17 November 2019
Temperature: 9.0°C (48°F)
Dewpoint: 9.0°C (48°F) [RH = 100%]
Pressure (altimeter): 30.24 inches Hg (1024.1 mb)
Winds: calm
Visibility: 4 miles ( 6 km)
Ceiling: 300 feet AGL
Clouds: overcast cloud deck at 300 feet AGL
Weather: BR  (mist)

METAR text: KONP 171435Z AUTO 15003KT 3SM BR OVC003 09/09 A3023 RMK AO2
Conditions at: KONP (NEWPORT , OR, US) observed 1435 UTC 17 November 2019
Temperature: 9.0°C (48°F)
Dewpoint: 9.0°C (48°F) [RH = 100%]
Pressure (altimeter): 30.23 inches Hg (1023.8 mb)
Winds: from the SSE (150 degrees) at 3 MPH (3 knots; 1.5 m/s)
Visibility: 3 miles ( 5 km)
Ceiling: 300 feet AGL
Clouds: overcast cloud deck at 300 feet AGL
Weather: BR  (mist)

METAR text: KONP 171415Z AUTO 13003KT 3SM BR OVC005 08/08 A3024 RMK AO2
Conditions at: KONP (NEWPORT , OR, US) observed 1415 UTC 17 November 2019
Temperature: 8.0°C (46°F)
Dewpoint: 8.0°C (46°F) [RH = 100%]
Pressure (altimeter): 30.24 inches Hg (1024.1 mb)
Winds: from the SE (130 degrees) at 3 MPH (3 knots; 1.5 m/s)
Visibility: 3 miles ( 5 km)
Ceiling: 500 feet AGL
Clouds: overcast cloud deck at 500 feet AGL
Weather: BR  (mist)

METAR text: KONP 171355Z AUTO 00000KT 7SM BKN007 BKN011 OVC110 07/07 A3024 RMK AO2
Conditions at: KONP (NEWPORT , OR, US) observed 1355 UTC 17 November 2019
Temperature: 7.0°C (45°F)
Dewpoint: 7.0°C (45°F) [RH = 100%]
Pressure (altimeter): 30.24 inches Hg (1024.1 mb)
Winds: calm
Visibility: 7 miles (11 km)
Ceiling: 700 feet AGL
Clouds: broken clouds at 700 feet AGL
broken clouds at 1100 feet AGL
overcast cloud deck at 11000 feet AGL
Weather: automated observation with no human augmentation;
there may or may not be significant weather present at this time

METAR text: KONP 171335Z AUTO 00000KT 4SM BR SCT009 SCT110 06/06 A3024 RMK AO2
Conditions at: KONP (NEWPORT , OR, US) observed 1335 UTC 17 November 2019
Temperature: 6.0°C (43°F)
Dewpoint: 6.0°C (43°F) [RH = 100%]
Pressure (altimeter): 30.24 inches Hg (1024.1 mb)
Winds: calm
Visibility: 4 miles ( 6 km)
Ceiling: at least 12,000 feet AGL
Clouds: scattered clouds at 900 feet AGL
scattered clouds at 11000 feet AGL
Weather: BR  (mist)

METAR text: KONP 171315Z AUTO 00000KT 7SM CLR 07/07 A3022 RMK AO2
Conditions at: KONP (NEWPORT , OR, US) observed 1315 UTC 17 November 2019
Temperature: 7.0°C (45°F)
Dewpoint: 7.0°C (45°F) [RH = 100%]
Pressure (altimeter): 30.22 inches Hg (1023.5 mb)
Winds: calm
Visibility: 7 miles (11 km)
Ceiling: at least 12,000 feet AGL
Clouds: sky clear below 12,000 feet AGL
Weather: automated observation with no human augmentation;
there may or may not be significant weather present at this time

Forecast for: KONP (NEWPORT , OR, US)
Text: KONP 171147Z 1712/1812 10006KT P6SM BKN080 OVC120
Forecast period: 1200 to 1600 UTC 17 November 2019
Forecast type: FROM: standard forecast or significant change
Winds: from the E (100 degrees) at 7 MPH (6 knots; 3.1 m/s)
Visibility: 6 or more miles 10+ km)
Ceiling: 8000 feet AGL
Clouds: broken clouds at 8000 feet AGL
overcast cloud deck at 12000 feet AGL
Weather: no significant weather forecast for this period
Text: FM171600 19005KT 4SM BR OVC020
Forecast period: 1600 to 2200 UTC 17 November 2019
Forecast type: FROM: standard forecast or significant change
Winds: from the S (190 degrees) at 6 MPH (5 knots; 2.6 m/s)
Visibility: 4 miles (6 km)
Ceiling: 2000 feet AGL
Clouds: overcast cloud deck at 2000 feet AGL
Weather: BR  (mist)
Text: FM172200 20004KT 4SM BR OVC012
Forecast period: 2200 UTC 17 November 2019 to 0300 UTC 18 November 2019
Forecast type: FROM: standard forecast or significant change
Winds: from the SSW (200 degrees) at 5 MPH (4 knots; 2.1 m/s)
Visibility: 4 miles (6 km)
Ceiling: 1200 feet AGL
Clouds: overcast cloud deck at 1200 feet AGL
Weather: BR  (mist)
Text: FM180300 08004KT 2SM BR OVC005
Forecast period: 0300 to 1200 UTC 18 November 2019
Forecast type: FROM: standard forecast or significant change
Winds: from the E (80 degrees) at 5 MPH (4 knots; 2.1 m/s)
Visibility: 2.00 miles (3.22 km)
Ceiling: 500 feet AGL
Clouds: overcast cloud deck at 500 feet AGL
Weather: BR  (mist)